SILO ALERT LOG


Silo ID Alert Type Alert Message Silo Type Points Depth (mm) Strength Temperature (°C) Humidity (%) Height (mm) Volume (㎥) Weight (t) Flag Time
DJDJD03 Humidity 습도센서 측정값이 80% 초과 63 4870 5124 1.5 82.7 2809 340.365 215.178 0 2024-01-14 05:39:41.000
DJSAD01 Humidity 습도센서 측정값이 80% 초과 494 1463 7442 0.8 86.1 7316 302.874 191.477 0 2024-01-14 05:39:40.000
DJSAD03 Humidity 습도센서 측정값이 80% 초과 453 1677 6214 2.1 84.5 7102 294.014 185.876 0 2024-01-14 05:39:39.000
DJSAD02 Humidity 습도센서 측정값이 80% 초과 374 1143 4258 1.7 86.3 7636 316.119 199.85 11 2024-01-14 05:39:38.000
DJHNR08 Temperature 온도센서 측정값이 0도 미만 378 5447 2247 -0.7 66.2 2232 317.649 200.818 11 2024-01-14 05:39:36.000
DJSAD11 Humidity 습도센서 측정값이 80% 초과 335 1652 3296 1 80.4 5927 843.44 533.223 11 2024-01-14 05:39:35.000
DJSSD04 Temperature 온도센서 상태 이상 0 8200 0 -999 -999 -120 -16.702 0 31 2024-01-14 05:39:33.000
DJSSD05 Temperature 온도센서 측정값이 0도 미만 836 2541 5027 -45.4 43.8 5538 770.805 487.303 0 2024-01-14 05:39:33.000
DJSSD01 Humidity 습도센서 측정값이 80% 초과 805 2566 4706 4.7 84.1 5513 767.335 485.109 0 2024-01-14 05:39:33.000
DJHNR11 Temperature 온도센서 측정값이 0도 미만 호퍼 116 1880 3348 -3.4 75.5 8499 129.388 81.799 11 2024-01-14 05:39:32.000
DJDJD04 Humidity 습도센서 측정값이 80% 초과 277 4218 4435 2.6 82.3 3461 419.399 265.144 11 2024-01-14 05:39:32.000
DJSAD08 Humidity 습도센서 측정값이 80% 초과 588 2290 4874 6.9 84 5289 752.635 475.816 12 2024-01-14 05:39:32.000
DJSSD09 Temperature 온도센서 측정값이 0도 미만 131 2894 3636 -45.4 0 4785 666.114 421.117 11 2024-01-14 05:39:32.000
DJHNR01 Humidity 습도센서 측정값이 80% 초과 호퍼 471 4315 4905 3.8 99.9 11064 472.262 298.564 13 2024-01-14 05:39:32.000
DJSAD16 Humidity 습도센서 측정값이 80% 초과 95 6502 3433 4 80.4 1077 107.304 67.838 11 2024-01-14 05:39:32.000
DJSAD18 Humidity 습도센서 측정값이 80% 초과 112 1407 5751 4.3 80.8 6172 614.675 388.598 11 2024-01-14 05:39:31.000
DJSSD11 Temperature 온도센서 측정값이 0도 미만 호퍼 446 7390 154 -4.1 72.5 3839 28.891 15.745 11 2024-01-14 05:39:31.000
DJHNR13 Temperature 온도센서 측정값이 0도 미만 호퍼 8 3319 3082 -3.6 71.8 7060 98.344 62.173 0 2024-01-14 05:39:30.000
DJHNR14 Temperature 온도센서 측정값이 0도 미만 호퍼 44 3054 4458 -4.1 74.3 7325 104.066 65.79 11 2024-01-14 05:39:30.000
DJDJD01 Temperature 온도센서 측정값이 0도 미만 311 6828 5967 -0.9 79 851 103.16 65.218 11 2024-01-14 05:39:30.000

[첫 페이지] [9950] [9951] [9952] [9953] 9954 [9955] [9956] [9957] [9958] [마지막 페이지]